Asher, Kentucky
Current Conditions -  °F | °C
As of 1:55 PM on Friday 31 Oct 2014 (Local Time) from KI35 Reporting Station
Overcast Overcast  
Wind Chill: 43°   Ceiling: 1900
Heat Index: 43°   Visibility: 10mi
Dew Point: 43°   Wind: 3mph
Humidity: 100%   Direction: 40°NE
Pressure: 29.91"   Gusts: NA
Location:  37.04°N, 83.4°W
Report Text: KI35 311755Z AUTO 04003KT 10SM OVC019 06/06 A2991 RMK AO1
Loading
Personal Weather Stations






























Interactive Weather Map New forecast layout! Learn more

10-Day Weather Forecast

Advertisements
Track Severe Weather on mobile